Terminal Aerodrome Forecast
Issued by NWS

Home | Current Version | Previous Version | Text Only | Print | Product List | Glossary On
Versions: 1 2 3 4 5 6 7 8 9 10 11 12 13 14 15
000
FTUS46 KSEW 222320
TAFBFI
TAF
KBFI 222320Z 2300/2324 36005KT P6SM FEW050
     FM230500 VRB03KT P6SM SCT035 OVC050
     FM231200 VRB03KT P6SM BKN015
     FM232000 30006KT P6SM FEW020 BKN035
     FM232300 31006KT P6SM SCT040=

USA.gov is the U.S. government's official web portal to all federal, state and local government web resources and services.